Terminal Aerodrome Forecast
Issued by NWS

Home | Current Version | Previous Version | Text Only | Print | Product List | Glossary On
Versions: 1 2 3 4 5 6 7 8 9 10 11 12 13
000
FTUS42 TJSJ 232300 RRA
TAFJBQ
TAF
TJBQ 232341Z 2400/2424 VRB06KT P6SM VCSH SCT030 SCT050
      TEMPO 2400/2402 BKN025
     FM241400 07012KT P6SM SCT030
     FM242300 09008KT P6SM SCT025=

USA.gov is the U.S. government's official web portal to all federal, state and local government web resources and services.